Time;durP1;ratioP1;P1;durP2;ratioP2;P2;SDS_P1;SDS_P2;PMS_P1;PMS_P2;Temp;Humidity;BMP_temperature;BMP_pressure;BME280_temperature;BME280_humidity;BME280_pressure;Samples;Min_cycle;Max_cycle;Signal;HPM_P1;HPM_P2
2021/05/18 00:00:03;;;;;;;17.05;6.30;;;20.90;43.70;;;;;;5054417;28;20075;-83
2021/05/18 00:02:29;;;;;;;14.48;7.90;;;20.90;43.30;;;;;;5053874;28;20100;-83
2021/05/18 00:04:54;;;;;;;17.08;7.80;;;20.90;43.40;;;;;;5054343;28;20131;-83
2021/05/18 00:07:22;;;;;;;18.58;7.70;;;20.80;43.70;;;;;;5052116;28;20474;-81
2021/05/18 00:12:34;;;;;;;18.25;7.18;;;20.80;43.70;;;;;;5054116;28;20090;-82
2021/05/18 00:15:03;;;;;;;13.30;7.15;;;20.70;44.20;;;;;;5066297;28;20032;-81
2021/05/18 00:17:28;;;;;;;16.23;7.55;;;20.70;44.00;;;;;;5035772;28;20104;-80
2021/05/18 00:19:54;;;;;;;15.23;7.75;;;20.60;44.10;;;;;;5053674;28;20121;-81
2021/05/18 00:22:21;;;;;;;18.17;7.20;;;20.60;44.10;;;;;;5041832;28;20017;-80
2021/05/18 00:24:47;;;;;;;17.57;7.73;;;20.60;44.60;;;;;;5053571;28;20107;-80
2021/05/18 00:27:13;;;;;;;22.17;7.40;;;20.60;45.20;;;;;;5053754;28;20045;-81
2021/05/18 00:29:39;;;;;;;17.23;7.32;;;20.50;44.70;;;;;;5053710;28;20025;-82
2021/05/18 00:32:05;;;;;;;19.67;7.32;;;20.50;44.50;;;;;;5054287;28;20434;-81
2021/05/18 00:34:31;;;;;;;17.98;7.28;;;20.50;44.70;;;;;;5053756;28;20437;-81
2021/05/18 00:36:57;;;;;;;17.45;7.30;;;20.40;44.80;;;;;;5053519;28;20017;-82
2021/05/18 00:39:23;;;;;;;16.17;6.22;;;20.40;45.10;;;;;;5053687;28;20502;-81
2021/05/18 00:41:49;;;;;;;13.18;6.50;;;20.40;45.30;;;;;;5053382;28;20029;-81
2021/05/18 00:44:15;;;;;;;13.27;7.45;;;20.30;45.70;;;;;;5053439;28;20033;-81
2021/05/18 00:46:41;;;;;;;18.25;7.75;;;20.30;45.20;;;;;;5054162;28;20099;-81
2021/05/18 00:49:07;;;;;;;17.58;6.75;;;20.30;45.30;;;;;;5053464;28;20114;-83
2021/05/18 00:51:33;;;;;;;17.60;8.02;;;20.30;45.50;;;;;;5053382;28;20028;-82
2021/05/18 00:54:03;;;;;;;17.27;7.07;;;20.30;45.40;;;;;;5053323;28;20017;-82
2021/05/18 00:59:05;;;;;;;15.18;7.18;;;20.20;45.40;;;;;;5053105;28;20021;-81
2021/05/18 01:01:31;;;;;;;18.00;7.68;;;20.10;45.70;;;;;;5063604;28;20020;-82
2021/05/18 01:03:59;;;;;;;14.93;6.70;;;20.10;45.80;;;;;;5057062;28;20106;-80
2021/05/18 01:09:08;;;;;;;15.88;6.82;;;20.10;45.90;;;;;;5052877;28;20466;-82
2021/05/18 01:11:34;;;;;;;36.38;10.13;;;20.00;46.20;;;;;;5053018;28;20047;-82
2021/05/18 01:14:07;;;;;;;75.60;16.67;;;20.00;46.10;;;;;;5052797;28;20029;-81
2021/05/18 01:16:37;;;;;;;27.80;8.35;;;20.00;46.30;;;;;;5053274;28;20058;-82
2021/05/18 01:19:05;;;;;;;78.15;16.13;;;20.00;46.70;;;;;;5035792;28;20028;-83
2021/05/18 01:21:31;;;;;;;39.33;10.88;;;20.00;46.30;;;;;;5035114;28;20025;-82
2021/05/18 01:23:58;;;;;;;17.23;7.45;;;19.90;46.60;;;;;;5053215;28;20021;-82
2021/05/18 01:26:25;;;;;;;21.38;7.82;;;19.90;46.60;;;;;;5034879;28;20064;-83
2021/05/18 01:28:51;;;;;;;20.98;7.40;;;19.90;46.40;;;;;;5052821;28;20021;-83
2021/05/18 01:31:24;;;;;;;15.23;6.43;;;19.90;47.00;;;;;;5052625;28;20387;-83
2021/05/18 01:33:52;;;;;;;20.00;7.60;;;19.90;46.80;;;;;;5053338;28;20025;-81
2021/05/18 01:36:20;;;;;;;16.98;6.60;;;19.90;47.00;;;;;;5055212;28;20025;-82
2021/05/18 01:44:16;;;;;;;17.20;6.80;;;19.80;47.10;;;;;;5053001;28;20441;-82
2021/05/18 01:46:44;;;;;;;17.80;7.07;;;19.80;47.40;;;;;;5052263;28;20019;-82
2021/05/18 01:49:12;;;;;;;11.77;6.65;;;19.80;47.40;;;;;;5063185;28;20111;-82
2021/05/18 01:51:43;;;;;;;18.20;7.32;;;19.80;47.10;;;;;;5052672;28;20114;-82
2021/05/18 01:54:13;;;;;;;21.08;7.68;;;19.90;47.40;;;;;;5034537;28;20025;-80
2021/05/18 01:56:50;;;;;;;20.38;6.97;;;19.90;47.00;;;;;;5053012;28;20383;-82
2021/05/18 01:59:19;;;;;;;12.48;6.28;;;19.80;47.30;;;;;;5052440;28;20103;-83
2021/05/18 02:01:47;;;;;;;21.60;7.00;;;19.90;47.30;;;;;;5042966;28;20136;-81
2021/05/18 02:04:24;;;;;;;23.75;7.10;;;19.90;47.60;;;;;;5053376;28;20037;-81
2021/05/18 02:06:50;;;;;;;;;;;20.00;47.60;;;;;;5055462;28;20159;-82
2021/05/18 02:09:17;;;;;;;15.65;7.65;;;19.90;47.00;;;;;;5064459;28;19908;-83
2021/05/18 02:11:43;;;;;;;14.63;6.50;;;19.90;47.60;;;;;;5053181;28;20021;-82
2021/05/18 02:14:15;;;;;;;19.63;7.78;;;20.00;47.50;;;;;;5046671;28;20083;-82
2021/05/18 02:16:42;;;;;;;22.65;7.43;;;20.00;47.10;;;;;;5052367;28;20025;-83
2021/05/18 02:19:21;;;;;;;12.45;6.50;;;20.10;47.10;;;;;;5052111;28;20021;-81
2021/05/18 02:22:07;;;;;;;18.45;6.43;;;20.10;47.20;;;;;;5056164;28;20083;-82
2021/05/18 02:27:02;;;;;;;18.00;6.60;;;20.20;46.90;;;;;;5056052;28;20078;-81
2021/05/18 02:29:28;;;;;;;16.98;6.53;;;20.30;46.70;;;;;;5056217;28;20104;-81
2021/05/18 02:31:56;;;;;;;20.10;6.95;;;20.30;47.30;;;;;;5056068;28;20039;-82
2021/05/18 02:34:22;;;;;;;19.80;6.53;;;20.40;47.40;;;;;;5056045;28;20082;-81
2021/05/18 02:36:48;;;;;;;12.85;6.20;;;20.50;46.70;;;;;;5056145;28;20032;-80
2021/05/18 02:39:14;;;;;;;22.17;8.10;;;20.50;46.30;;;;;;5056249;28;20025;-83
2021/05/18 02:41:40;;;;;;;16.77;6.55;;;20.60;46.70;;;;;;5055667;28;20083;-82
2021/05/18 02:44:18;;;;;;;21.20;7.18;;;20.70;46.60;;;;;;5055644;28;20386;-82
2021/05/18 02:49:29;;;;;;;15.18;5.97;;;20.80;45.80;;;;;;5055614;28;20120;-83
2021/05/18 02:51:54;;;;;;;12.45;5.72;;;20.90;45.40;;;;;;5055457;28;20096;-82
2021/05/18 02:54:24;;;;;;;22.75;7.53;;;21.00;45.40;;;;;;5055421;28;20040;-82
2021/05/18 02:59:20;;;;;;;14.35;5.88;;;21.10;45.00;;;;;;5055786;28;20017;-82
2021/05/18 03:01:50;;;;;;;17.33;6.28;;;21.20;45.30;;;;;;5055605;28;20021;-82
2021/05/18 03:04:16;;;;;;;18.77;6.18;;;21.20;44.90;;;;;;5048984;28;20021;-81
2021/05/18 03:06:42;;;;;;;19.20;8.17;;;21.30;45.60;;;;;;5037921;28;20025;-81
2021/05/18 03:09:12;;;;;;;13.73;6.53;;;21.30;45.40;;;;;;5055508;28;20470;-82
2021/05/18 03:11:40;;;;;;;14.95;5.90;;;21.40;44.80;;;;;;5054964;28;20017;-81
2021/05/18 03:14:08;;;;;;;17.65;6.57;;;21.40;45.10;;;;;;5054994;28;20051;-83
2021/05/18 03:16:36;;;;;;;18.73;7.70;;;21.50;45.00;;;;;;5055394;28;20506;-80
2021/05/18 03:19:02;;;;;;;17.10;6.28;;;21.50;44.50;;;;;;5056320;28;20060;-83
2021/05/18 03:21:29;;;;;;;18.23;6.07;;;21.50;44.70;;;;;;5047762;28;20394;-81
2021/05/18 03:23:55;;;;;;;19.65;7.20;;;21.50;44.90;;;;;;5055901;28;20045;-82
2021/05/18 03:26:21;;;;;;;22.70;6.57;;;21.60;45.20;;;;;;5056621;28;20029;-80
2021/05/18 03:28:53;;;;;;;17.52;7.30;;;21.70;45.00;;;;;;5038458;28;20048;-81
2021/05/18 03:34:29;;;;;;;27.58;8.68;;;21.80;45.00;;;;;;5054984;28;20052;-82
2021/05/18 03:36:57;;;;;;;21.15;6.97;;;21.90;45.00;;;;;;5049739;28;20457;-80
2021/05/18 03:39:24;;;;;;;19.30;6.32;;;21.90;44.50;;;;;;5055044;28;20109;-82
2021/05/18 03:45:06;;;;;;;21.92;7.38;;;22.00;45.10;;;;;;5054951;28;20032;-81
2021/05/18 03:52:46;;;;;;;19.52;6.50;;;22.30;44.20;;;;;;5046612;28;20397;-82
2021/05/18 04:03:35;;;;;;;16.67;6.38;;;22.40;43.70;;;;;;5054667;28;20374;-83
2021/05/18 04:19:09;;;;;;;15.00;7.05;;;22.90;42.90;;;;;;5054083;28;20112;-81
2021/05/18 04:52:02;;;;;;;13.45;5.65;;;23.70;41.00;;;;;;5053978;28;20032;-83
2021/05/18 05:00:03;;;;;;;15.45;6.35;;;24.90;39.90;;;;;;5053985;28;20552;-83
2021/05/18 05:14:25;;;;;;;17.88;6.03;;;29.80;33.40;;;;;;5053399;28;20032;-82
2021/05/18 05:20:38;;;;;;;21.67;6.13;;;31.60;31.90;;;;;;5043094;28;20111;-83
2021/05/18 05:23:04;;;;;;;15.80;7.15;;;32.40;31.80;;;;;;5052906;28;20017;-84
2021/05/18 05:25:31;;;;;;;18.77;5.83;;;32.30;29.70;;;;;;5052868;28;20032;-84
2021/05/18 05:27:57;;;;;;;26.45;5.95;;;32.20;29.60;;;;;;5052618;28;20037;-86
2021/05/18 05:30:23;;;;;;;11.13;4.93;;;32.40;29.80;;;;;;5053514;28;20049;-83
2021/05/18 05:32:54;;;;;;;18.63;6.13;;;33.10;29.30;;;;;;5029632;28;20056;-81
2021/05/18 05:35:20;;;;;;;23.08;6.70;;;33.70;29.20;;;;;;5052890;28;20020;-81
2021/05/18 05:37:46;;;;;;;12.20;5.90;;;34.20;29.00;;;;;;5052333;28;20470;-81
2021/05/18 05:40:12;;;;;;;16.40;6.23;;;34.60;28.30;;;;;;5034956;28;20433;-81
2021/05/18 05:42:38;;;;;;;12.90;5.85;;;34.70;28.00;;;;;;5034399;28;20435;-83
2021/05/18 05:45:04;;;;;;;10.73;5.70;;;34.80;28.00;;;;;;5051840;28;20067;-82
2021/05/18 05:47:30;;;;;;;19.35;6.63;;;35.30;27.60;;;;;;5042891;28;20025;-83
2021/05/18 05:49:56;;;;;;;18.88;6.20;;;35.60;27.80;;;;;;5052779;28;20018;-82
2021/05/18 05:52:22;;;;;;;23.93;5.90;;;36.30;27.30;;;;;;5053565;28;20083;-81
2021/05/18 05:54:50;;;;;;;24.58;6.53;;;36.90;27.10;;;;;;5052918;28;20032;-83
2021/05/18 05:57:20;;;;;;;20.27;7.00;;;37.60;26.80;;;;;;5048095;28;21264;-84
2021/05/18 05:59:46;;;;;;;18.30;6.18;;;38.20;26.60;;;;;;5052686;28;20140;-83
2021/05/18 06:02:12;;;;;;;22.67;6.32;;;38.40;26.10;;;;;;5034593;28;20028;-82
2021/05/18 06:04:38;;;;;;;17.27;7.25;;;38.70;26.20;;;;;;5034789;28;20037;-83
2021/05/18 06:07:04;;;;;;;15.18;6.47;;;39.50;25.80;;;;;;5052956;28;20029;-86
2021/05/18 06:09:31;;;;;;;24.98;7.13;;;40.00;25.50;;;;;;5041121;28;20610;-83
2021/05/18 06:47:33;;;;;;;13.45;6.45;;;44.80;23.00;;;;;;4984257;28;20089;-85
2021/05/18 06:52:43;;;;;;;19.83;5.97;;;45.30;23.00;;;;;;5039199;28;20067;-83
2021/05/18 06:55:14;;;;;;;13.63;5.07;;;45.30;22.80;;;;;;5052509;28;20048;-85
2021/05/18 06:57:45;;;;;;;15.85;6.50;;;45.40;22.60;;;;;;5020994;28;20025;-86
2021/05/18 07:00:14;;;;;;;16.10;5.63;;;45.60;22.80;;;;;;5037473;28;20017;-84
2021/05/18 07:02:43;;;;;;;22.55;7.05;;;46.00;22.90;;;;;;5052777;28;20067;-83
2021/05/18 07:05:26;;;;;;;19.45;6.50;;;;;;;;;;5051820;28;20110;-84
2021/05/18 07:10:43;;;;;;;17.83;6.50;;;46.80;22.70;;;;;;5056770;28;20035;-84
2021/05/18 07:13:10;;;;;;;21.05;7.15;;;46.90;22.30;;;;;;5060149;28;20027;-84
2021/05/18 07:15:39;;;;;;;19.13;7.22;;;47.20;22.30;;;;;;5056782;28;20441;-82
2021/05/18 07:18:06;;;;;;;27.40;8.18;;;47.40;22.30;;;;;;5042526;28;20029;-84
2021/05/18 07:20:32;;;;;;;25.65;7.63;;;47.60;22.10;;;;;;5056730;28;20040;-86
2021/05/18 07:23:08;;;;;;;20.55;6.93;;;47.50;21.90;;;;;;5058769;28;20392;-84
2021/05/18 07:25:34;;;;;;;28.33;8.48;;;47.60;21.70;;;;;;5056395;28;20060;-84
2021/05/18 07:28:05;;;;;;;24.95;7.63;;;47.60;22.10;;;;;;5055945;28;20041;-84
2021/05/18 07:30:32;;;;;;;16.23;7.32;;;48.00;22.00;;;;;;5046254;28;20366;-85
2021/05/18 07:32:58;;;;;;;28.90;9.30;;;48.10;21.60;;;;;;5058003;28;20474;-84
2021/05/18 07:35:23;;;;;;;20.42;7.95;;;48.10;21.90;;;;;;5039188;28;20025;-83
2021/05/18 07:37:49;;;;;;;20.85;8.23;;;47.70;21.70;;;;;;5056695;28;20017;-83
2021/05/18 07:40:15;;;;;;;19.45;6.43;;;47.80;22.00;;;;;;5059134;28;20116;-83
2021/05/18 07:42:41;;;;;;;17.42;6.72;;;47.90;21.70;;;;;;5056657;28;20025;-83
2021/05/18 07:45:09;;;;;;;25.42;7.03;;;47.60;22.00;;;;;;5055304;28;20036;-85
2021/05/18 07:47:39;;;;;;;23.45;7.43;;;47.70;22.00;;;;;;5055046;28;20025;-83
2021/05/18 07:50:20;;;;;;;19.88;6.80;;;47.60;22.10;;;;;;5055395;28;20094;-85
2021/05/18 08:06:26;;;;;;;14.93;5.72;;;48.10;21.60;;;;;;5045351;28;20044;-86
2021/05/18 08:08:57;;;;;;;15.27;5.75;;;48.50;21.30;;;;;;5051770;28;20024;-85
2021/05/18 08:11:25;;;;;;;24.77;5.63;;;47.80;20.90;;;;;;5055005;28;20024;-84
2021/05/18 08:13:55;;;;;;;22.58;6.03;;;47.30;21.20;;;;;;5057063;28;20021;-83
2021/05/18 08:16:50;;;;;;;20.60;4.85;;;47.40;21.30;;;;;;5040463;28;20136;-85
2021/05/18 08:22:29;;;;;;;21.33;5.60;;;47.90;21.00;;;;;;5046933;28;20493;-85
2021/05/18 08:55:33;;;;;;;18.50;6.25;;;49.10;20.50;;;;;;5054306;28;20421;-86
2021/05/18 10:36:15;;;;;;;16.80;5.55;;;38.40;21.50;;;;;;5053327;28;20033;-86
2021/05/18 10:38:52;;;;;;;20.33;5.22;;;37.00;21.80;;;;;;5053038;28;20387;-85
2021/05/18 10:41:24;;;;;;;29.05;6.47;;;35.60;22.60;;;;;;5054784;28;20080;-84
2021/05/18 10:44:00;;;;;;;22.13;6.57;;;34.80;23.00;;;;;;5057739;28;20104;-84
2021/05/18 10:46:28;;;;;;;18.35;4.35;;;34.30;23.90;;;;;;5056716;28;20029;-86
2021/05/18 10:49:02;;;;;;;23.63;6.43;;;33.70;23.00;;;;;;5056459;28;20082;-84
2021/05/18 10:51:39;;;;;;;24.80;6.70;;;33.40;24.00;;;;;;5056139;28;20025;-84
2021/05/18 10:54:18;;;;;;;25.02;6.68;;;33.20;24.20;;;;;;5056690;28;20036;-85
2021/05/18 10:56:53;;;;;;;30.30;7.05;;;33.20;23.90;;;;;;5040511;28;20021;-85
2021/05/18 10:59:30;;;;;;;25.90;5.97;;;33.10;23.50;;;;;;5060787;28;20025;-85
2021/05/18 11:02:00;;;;;;;25.45;7.22;;;32.90;23.50;;;;;;5062507;28;20021;-85
2021/05/18 11:04:36;;;;;;;22.98;7.05;;;32.80;23.80;;;;;;5052419;28;20111;-85
2021/05/18 11:07:20;;;;;;;23.33;6.82;;;32.70;24.10;;;;;;5058645;28;20029;-86
2021/05/18 11:09:46;;;;;;;22.10;5.50;;;32.60;24.40;;;;;;5038632;28;20036;-85
2021/05/18 11:12:15;;;;;;;28.95;6.38;;;32.60;23.50;;;;;;5055946;28;20421;-83
2021/05/18 11:14:45;;;;;;;21.48;5.35;;;32.40;24.20;;;;;;5055279;28;20021;-85
2021/05/18 11:17:28;;;;;;;26.73;5.18;;;32.40;24.10;;;;;;5055873;28;20028;-85
2021/05/18 11:20:59;;;;;;;25.27;7.10;;;32.30;23.80;;;;;;5012458;28;20028;-86
2021/05/18 11:23:22;;;;;;;28.60;6.78;;;32.30;24.40;;;;;;5051072;28;20037;-86
2021/05/18 11:25:58;;;;;;;29.75;6.40;;;32.20;24.90;;;;;;5037712;28;20103;-86
2021/05/18 11:28:29;;;;;;;32.53;6.97;;;32.20;23.40;;;;;;5055755;28;20475;-84
2021/05/18 11:30:58;;;;;;;38.70;7.35;;;31.90;23.60;;;;;;5037366;28;20025;-85
2021/05/18 11:33:33;;;;;;;31.92;7.25;;;31.70;23.70;;;;;;5037944;28;20071;-86
2021/05/18 11:36:10;;;;;;;36.28;6.60;;;31.70;23.70;;;;;;5054717;28;20033;-86
2021/05/18 11:38:47;;;;;;;18.30;5.10;;;31.50;23.90;;;;;;5036685;28;20478;-86
2021/05/18 11:41:29;;;;;;;29.08;6.45;;;31.40;24.00;;;;;;5054696;28;20027;-86
2021/05/18 11:44:51;;;;;;;31.08;6.60;;;31.30;24.40;;;;;;5057321;28;20021;-85
2021/05/18 11:54:12;;;;;;;31.48;6.57;;;31.00;25.00;;;;;;4894249;29;20556;-85
2021/05/18 11:56:40;;;;;;;20.38;5.53;;;31.10;25.40;;;;;;4954690;29;20035;-86
2021/05/18 11:59:23;;;;;;;22.13;6.88;;;31.20;25.10;;;;;;5047259;28;20026;-84
2021/05/18 12:01:55;;;;;;;19.02;5.78;;;31.30;25.20;;;;;;5046372;28;20482;-85
2021/05/18 12:08:10;;;;;;;13.48;5.15;;;31.50;24.70;;;;;;5059222;28;20036;-84
2021/05/18 12:10:37;;;;;;;21.35;6.63;;;31.50;24.40;;;;;;5060179;28;20021;-85
2021/05/18 12:13:05;;;;;;;16.17;4.55;;;31.40;24.90;;;;;;5055975;28;20024;-85
2021/05/18 12:15:31;;;;;;;16.77;4.82;;;31.40;24.30;;;;;;5054701;28;20026;-85
2021/05/18 12:17:57;;;;;;;16.25;5.40;;;31.30;24.30;;;;;;5053531;28;20075;-85
2021/05/18 12:20:23;;;;;;;19.15;5.38;;;31.30;24.00;;;;;;5054487;28;20486;-85
2021/05/18 12:22:51;;;;;;;23.95;5.00;;;31.20;23.90;;;;;;5053780;28;20425;-86
2021/05/18 12:25:37;;;;;;;22.67;5.30;;;31.30;24.10;;;;;;5043418;28;20088;-85
2021/05/18 12:28:12;;;;;;;18.17;5.85;;;31.20;24.30;;;;;;5024383;28;811178;-86
2021/05/18 12:30:43;;;;;;;18.45;5.53;;;31.20;24.30;;;;;;5055167;28;20025;-85
2021/05/18 12:33:09;;;;;;;24.85;5.40;;;31.30;24.70;;;;;;5058329;28;20017;-86
2021/05/18 12:35:41;;;;;;;21.73;6.18;;;31.20;24.20;;;;;;5056405;28;20025;-85
2021/05/18 12:38:27;;;;;;;20.10;4.97;;;31.30;24.40;;;;;;5054066;28;20115;-84
2021/05/18 12:41:02;;;;;;;26.73;5.28;;;31.30;23.90;;;;;;5054966;28;20056;-85
2021/05/18 12:43:38;;;;;;;22.42;4.80;;;31.30;23.70;;;;;;5054864;28;20021;-85
2021/05/18 12:46:13;;;;;;;29.98;6.85;;;31.20;23.70;;;;;;5036899;28;20564;-86
2021/05/18 12:48:47;;;;;;;21.08;5.47;;;31.20;24.20;;;;;;5054847;28;20040;-86
2021/05/18 12:51:27;;;;;;;18.73;4.72;;;31.20;24.20;;;;;;5054949;28;20568;-83
2021/05/18 12:54:04;;;;;;;19.42;5.40;;;31.20;23.60;;;;;;5054222;28;20040;-85
2021/05/18 12:56:31;;;;;;;18.20;5.78;;;31.30;22.90;;;;;;5042897;28;20360;-85
2021/05/18 12:59:09;;;;;;;23.02;4.57;;;31.20;23.00;;;;;;5053547;28;20017;-86
2021/05/18 13:01:44;;;;;;;13.32;4.50;;;31.20;23.10;;;;;;5053591;28;20096;-86
2021/05/18 13:04:11;;;;;;;11.20;5.38;;;31.20;23.00;;;;;;5053153;28;20017;-87
2021/05/18 13:06:49;;;;;;;16.05;4.95;;;31.10;23.60;;;;;;5053494;28;20031;-84
2021/05/18 13:09:22;;;;;;;23.85;5.45;;;31.20;23.10;;;;;;5053804;28;20021;-84
2021/05/18 13:14:55;;;;;;;19.02;5.05;;;31.10;23.50;;;;;;5053971;28;20032;-85
2021/05/18 13:17:23;;;;;;;17.10;5.40;;;31.10;23.90;;;;;;5047915;28;20017;-86
2021/05/18 13:20:12;;;;;;;18.05;4.25;;;31.00;23.70;;;;;;5054562;28;20032;-86
2021/05/18 13:22:41;;;;;;;15.40;4.28;;;31.00;23.60;;;;;;5053477;28;20025;-87
2021/05/18 13:28:03;;;;;;;15.77;4.55;;;31.00;23.90;;;;;;5053174;28;20179;-84
2021/05/18 13:30:32;;;;;;;18.55;5.20;;;31.00;23.50;;;;;;5056037;28;20032;-87
2021/05/18 13:32:58;;;;;;;19.50;5.30;;;31.00;23.70;;;;;;5055986;28;20518;-83
2021/05/18 13:35:28;;;;;;;10.77;4.10;;;31.10;23.50;;;;;;5054186;28;20163;-83
2021/05/18 13:37:55;;;;;;;20.65;4.35;;;31.20;23.60;;;;;;5054288;28;20056;-83
2021/05/18 13:40:21;;;;;;;15.93;5.10;;;32.10;23.10;;;;;;5053108;28;20029;-85
2021/05/18 13:42:50;;;;;;;23.30;5.00;;;33.20;22.70;;;;;;5052896;28;20028;-85
2021/05/18 13:45:16;;;;;;;17.73;5.32;;;34.20;22.80;;;;;;5053519;28;20055;-85
2021/05/18 13:47:42;;;;;;;11.57;4.25;;;34.90;22.20;;;;;;5053158;28;20529;-85
2021/05/18 13:50:09;;;;;;;18.00;5.10;;;35.30;21.80;;;;;;5052891;28;20112;-84
2021/05/18 13:52:35;;;;;;;16.77;5.43;;;35.70;21.40;;;;;;5038703;28;20087;-84
2021/05/18 13:55:01;;;;;;;18.60;4.67;;;35.90;21.40;;;;;;5055751;28;20029;-85
2021/05/18 13:57:26;;;;;;;13.40;4.10;;;36.10;21.70;;;;;;5055289;28;20276;-86
2021/05/18 13:59:52;;;;;;;19.20;4.80;;;36.20;21.20;;;;;;5057869;28;20025;-86
2021/05/18 14:02:18;;;;;;;21.77;5.05;;;36.20;21.50;;;;;;5036832;28;20108;-85
2021/05/18 14:04:44;;;;;;;13.23;4.13;;;36.30;21.20;;;;;;5052835;28;20094;-84
2021/05/18 14:07:56;;;;;;;19.42;5.18;;;36.30;21.60;;;;;;5052544;28;20409;-84
2021/05/18 14:10:22;;;;;;;18.05;5.05;;;36.40;21.40;;;;;;5050980;28;20464;-86
2021/05/18 14:12:48;;;;;;;17.25;5.38;;;36.50;21.60;;;;;;5052999;28;20024;-83
2021/05/18 14:15:14;;;;;;;17.97;4.57;;;36.50;21.50;;;;;;5056770;28;20033;-84
2021/05/18 14:17:40;;;;;;;15.23;5.55;;;36.30;21.60;;;;;;5058103;28;20017;-84
2021/05/18 14:20:07;;;;;;;22.93;5.17;;;36.30;22.60;;;;;;5053220;28;20029;-86
2021/05/18 14:22:33;;;;;;;20.52;4.45;;;36.30;22.10;;;;;;5052105;28;20104;-87
2021/05/18 14:25:06;;;;;;;17.42;5.10;;;36.20;21.60;;;;;;5052500;28;20029;-85
2021/05/18 14:27:36;;;;;;;19.05;5.45;;;36.00;21.90;;;;;;5053962;28;20525;-84
2021/05/18 14:30:05;;;;;;;17.98;5.40;;;35.80;22.10;;;;;;5052443;28;20021;-85
2021/05/18 14:32:31;;;;;;;29.08;5.82;;;35.60;22.20;;;;;;5052311;28;20100;-85
2021/05/18 14:35:06;;;;;;;28.40;6.03;;;35.50;22.40;;;;;;5052254;28;20470;-86
2021/05/18 14:37:33;;;;;;;25.75;7.18;;;35.40;22.40;;;;;;5050914;28;20051;-86
2021/05/18 14:40:04;;;;;;;21.60;5.90;;;35.20;22.20;;;;;;5048750;28;20354;-85
2021/05/18 14:45:18;;;;;;;21.50;5.00;;;34.60;22.10;;;;;;5053256;28;20043;-84
2021/05/18 14:55:58;;;;;;;17.25;6.22;;;33.90;22.50;;;;;;5054235;28;20035;-84
2021/05/18 14:58:24;;;;;;;;;;;33.70;22.70;;;;;;5056801;28;20089;-83
2021/05/18 15:00:49;;;;;;;27.33;7.32;;;33.50;22.80;;;;;;5052075;28;20028;-83
2021/05/18 15:03:15;;;;;;;24.13;7.60;;;33.40;23.40;;;;;;5052010;28;20057;-84
2021/05/18 15:05:41;;;;;;;23.20;7.37;;;33.10;23.60;;;;;;5052137;28;20077;-85
2021/05/18 15:08:07;;;;;;;25.73;7.23;;;32.80;23.80;;;;;;5052295;28;20025;-84
2021/05/18 15:10:34;;;;;;;24.98;6.65;;;32.50;24.00;;;;;;5052319;28;20025;-86
2021/05/18 15:13:00;;;;;;;28.17;7.45;;;32.20;24.00;;;;;;5052257;28;20021;-84
2021/05/18 15:15:27;;;;;;;22.70;6.40;;;31.90;24.30;;;;;;5052810;28;20025;-86
2021/05/18 15:17:56;;;;;;;;;;;31.60;24.50;;;;;;5052549;28;20087;-85
2021/05/18 15:20:22;;;;;;;22.17;7.70;;;31.30;24.30;;;;;;5052133;28;19927;-82
2021/05/18 15:22:48;;;;;;;19.73;6.60;;;31.10;25.20;;;;;;5033428;28;20033;-85
2021/05/18 15:25:15;;;;;;;18.30;6.28;;;30.80;25.00;;;;;;5045614;28;20151;-84
2021/05/18 15:27:41;;;;;;;;;;;30.60;24.80;;;;;;5054692;28;20425;-84
2021/05/18 15:30:16;;;;;;;32.25;8.32;;;30.50;24.70;;;;;;5045788;28;19934;-86
2021/05/18 15:32:52;;;;;;;24.00;6.90;;;30.30;25.00;;;;;;5053707;28;20464;-82
2021/05/18 15:35:24;;;;;;;32.25;7.35;;;30.20;25.20;;;;;;5064270;28;20013;-86
2021/05/18 15:37:51;;;;;;;20.88;7.75;;;30.00;25.30;;;;;;5047298;28;20029;-85
2021/05/18 15:40:21;;;;;;;20.57;6.87;;;29.90;25.30;;;;;;5045896;28;20390;-86
2021/05/18 15:42:54;;;;;;;21.88;7.93;;;29.80;25.80;;;;;;5048399;28;20288;-85
2021/05/18 15:45:20;;;;;;;21.98;7.18;;;29.70;25.70;;;;;;5032503;28;20135;-85
2021/05/18 15:47:46;;;;;;;25.75;7.82;;;29.60;25.60;;;;;;5064426;28;20051;-85
2021/05/18 15:50:14;;;;;;;19.67;7.70;;;29.60;25.80;;;;;;5042609;28;20044;-86
2021/05/18 15:52:40;;;;;;;29.17;7.72;;;29.50;25.70;;;;;;5044196;28;20474;-85
2021/05/18 15:55:07;;;;;;;32.70;8.45;;;29.50;26.10;;;;;;5058050;28;20501;-84
2021/05/18 15:57:32;;;;;;;24.70;8.30;;;29.40;25.90;;;;;;5054773;28;20029;-84
2021/05/18 15:59:58;;;;;;;26.48;8.95;;;29.30;25.80;;;;;;5055418;28;20043;-84
2021/05/18 16:02:24;;;;;;;25.02;9.27;;;29.30;26.60;;;;;;5056271;28;20096;-85
2021/05/18 16:04:50;;;;;;;19.30;8.40;;;29.20;26.10;;;;;;5046928;28;20033;-84
2021/05/18 16:07:18;;;;;;;22.05;8.13;;;29.20;25.80;;;;;;5073703;28;20016;-83
2021/05/18 16:09:44;;;;;;;29.88;10.13;;;29.10;26.50;;;;;;5055255;28;20025;-84
2021/05/18 16:12:11;;;;;;;20.58;8.10;;;29.10;26.50;;;;;;5056119;28;20482;-84
2021/05/18 16:14:37;;;;;;;26.42;8.70;;;29.00;26.20;;;;;;5055797;28;20025;-84
2021/05/18 16:17:04;;;;;;;20.83;8.88;;;29.00;26.40;;;;;;5060583;28;20025;-85
2021/05/18 16:19:30;;;;;;;20.38;9.05;;;28.90;26.50;;;;;;5059053;28;20017;-84
2021/05/18 16:21:56;;;;;;;24.23;9.20;;;28.90;26.60;;;;;;5063558;28;20067;-84
2021/05/18 16:24:25;;;;;;;25.03;9.43;;;28.80;26.50;;;;;;5064178;28;20032;-85
2021/05/18 16:26:53;;;;;;;25.75;8.07;;;28.80;26.60;;;;;;5049538;28;20348;-86
2021/05/18 16:29:20;;;;;;;19.48;8.48;;;28.70;26.80;;;;;;5063364;28;20051;-84
2021/05/18 16:31:46;;;;;;;19.73;8.30;;;28.70;27.30;;;;;;5056197;28;20092;-85
2021/05/18 16:34:12;;;;;;;19.25;7.78;;;28.60;27.20;;;;;;5055564;28;20094;-85
2021/05/18 16:36:38;;;;;;;19.25;6.80;;;28.50;26.80;;;;;;5055832;28;20031;-84
2021/05/18 16:39:06;;;;;;;26.23;9.02;;;28.50;27.20;;;;;;5052292;28;20126;-85
2021/05/18 16:41:38;;;;;;;21.98;6.32;;;28.50;27.30;;;;;;5039980;28;20017;-86
2021/05/18 16:44:06;;;;;;;17.52;7.13;;;28.40;26.50;;;;;;5054373;28;20033;-86
2021/05/18 16:46:32;;;;;;;19.65;6.45;;;28.50;26.40;;;;;;5054157;28;20040;-84
2021/05/18 16:48:59;;;;;;;17.88;6.38;;;28.50;26.10;;;;;;5055753;28;20527;-87
2021/05/18 16:51:25;;;;;;;23.60;6.00;;;28.60;26.10;;;;;;5060775;28;20112;-83
2021/05/18 16:53:53;;;;;;;24.60;6.47;;;28.60;26.10;;;;;;5064251;28;20262;-84
2021/05/18 16:56:20;;;;;;;23.25;6.70;;;28.60;26.40;;;;;;5060076;28;20076;-85
2021/05/18 16:58:46;;;;;;;26.20;6.63;;;28.50;26.30;;;;;;5051229;28;20514;-86
2021/05/18 17:01:13;;;;;;;22.02;5.63;;;28.40;26.30;;;;;;5035946;28;20501;-86
2021/05/18 17:03:38;;;;;;;21.10;7.60;;;28.40;26.30;;;;;;5054011;28;20025;-85
2021/05/18 17:06:05;;;;;;;16.55;5.55;;;28.30;26.40;;;;;;5053629;28;20124;-85
2021/05/18 17:08:31;;;;;;;12.25;5.47;;;28.30;26.60;;;;;;5053610;28;20021;-85
2021/05/18 17:10:57;;;;;;;15.98;6.82;;;28.20;26.40;;;;;;5054289;28;20086;-85
2021/05/18 17:13:23;;;;;;;17.70;5.57;;;28.20;26.60;;;;;;5041618;28;20024;-84
2021/05/18 17:15:49;;;;;;;21.42;6.72;;;28.20;26.80;;;;;;5054034;28;20025;-86
2021/05/18 17:18:15;;;;;;;16.55;6.20;;;28.20;26.80;;;;;;5053984;28;20432;-86
2021/05/18 17:20:41;;;;;;;16.70;6.57;;;28.10;26.70;;;;;;5054134;28;20037;-85
2021/05/18 17:23:08;;;;;;;22.23;6.47;;;28.10;27.20;;;;;;5053146;28;20082;-86
2021/05/18 17:25:34;;;;;;;16.92;7.30;;;28.10;26.90;;;;;;5053452;28;20538;-85
2021/05/18 17:28:00;;;;;;;16.77;5.68;;;28.00;26.70;;;;;;5053029;28;20113;-84
2021/05/18 17:30:29;;;;;;;17.67;5.85;;;27.90;26.80;;;;;;5053716;28;20025;-85
2021/05/18 17:32:55;;;;;;;14.90;6.80;;;27.80;26.60;;;;;;5052879;28;20021;-88
2021/05/18 17:35:23;;;;;;;24.83;6.53;;;27.80;26.90;;;;;;5040439;28;20363;-85
2021/05/18 17:37:50;;;;;;;18.17;5.93;;;27.80;26.90;;;;;;5052168;28;20025;-85
2021/05/18 17:40:16;;;;;;;25.15;6.65;;;27.80;27.10;;;;;;5054367;28;20009;-85
2021/05/18 17:42:42;;;;;;;16.90;6.38;;;27.70;27.20;;;;;;5054441;28;20331;-83
2021/05/18 17:45:12;;;;;;;20.50;7.18;;;27.60;27.70;;;;;;5038382;28;20021;-84
2021/05/18 17:47:40;;;;;;;25.52;6.60;;;27.60;27.40;;;;;;5050041;28;20025;-84
2021/05/18 17:50:12;;;;;;;16.92;6.55;;;27.60;27.40;;;;;;5053124;28;20021;-85
2021/05/18 17:53:04;;;;;;;26.17;6.65;;;27.60;27.40;;;;;;5021786;28;20373;-84
2021/05/18 17:55:30;;;;;;;16.30;6.25;;;27.60;27.40;;;;;;5048798;28;20027;-84
2021/05/18 17:57:56;;;;;;;16.20;7.10;;;27.60;27.40;;;;;;5053098;28;20412;-84
2021/05/18 18:00:22;;;;;;;18.45;6.32;;;27.60;27.50;;;;;;5044851;28;20052;-86
2021/05/18 18:02:48;;;;;;;22.70;6.45;;;27.50;27.40;;;;;;5052478;28;20078;-84
2021/05/18 18:05:14;;;;;;;22.75;7.07;;;27.50;27.50;;;;;;5052799;28;20127;-82
2021/05/18 18:07:40;;;;;;;21.38;7.65;;;27.40;27.40;;;;;;5053017;28;20036;-84